メインページ
METAR-TAF:

METAR-TAF

空港 :

シラキューズ・ハンコック国際空港

シラキュース, ニューヨーク, アメリカ合衆国

緯度: 43-06-33N, 経度: 076-06-12W, 海抜: 128m

現時点の気象観測

当レポートは46分前の17:54(UTC)に作成
無風
気温 32°C
湿度 46%
気圧 1020 hPa
視程: 16.1km
高度4500ftの雲はほとんどない

METAR: KSYR 261754Z 00000KT 10SM FEW045 32/19 A3011 RMK AO2 SLP188 T03220189 10322 20217 58012

時間: 14:40 (18:40 UTC)

予報

当レポートは1時間20分前の17:20(UTC)に作成
予報は26日の 18時(UTC)から 27日の 18時(UTC)まで有効
変向風 3kt
視程: 10km
晴天
27日の 1600時(UTC)から
の風 5kt
視程: 10km
高度12000ftの雲は散在している

TAF: KSYR 261720Z 2618/2718 VRB03KT P6SM SKC FM271600 18005KT P6SM SCT120

4,000以上の空港の気象観測と天気予報(METAR報とTAF報)

利用可能な観測所は地図上に黄色い丸と赤い丸で示す。

丸の上にカーソルを重ねると観測所名を参照できる。

次にクリックすると気象観測と天気予報を参照できる。

マップの切り替え:黒色「×」印の緑ボタンをクリックして拡大、「-」印の緑ボタンをクリックして縮小、緑色の三角印をクリックして隣りの地図に切り替え


METAR-TAF: